Time;durP1;ratioP1;P1;durP2;ratioP2;P2;SDS_P1;SDS_P2;PMS_P1;PMS_P2;Temp;Humidity;BMP_temperature;BMP_pressure;BME280_temperature;BME280_humidity;BME280_pressure;Samples;Min_cycle;Max_cycle;Signal;HPM_P1;HPM_P2
2021/03/25 00:01:22;;;;;;;8.57;3.08;;;8.60;99.90;;;;;;5012577;28;20037;-77
2021/03/25 00:03:50;;;;;;;9.15;2.80;;;8.60;99.90;;;;;;5011527;28;20110;-78
2021/03/25 00:06:17;;;;;;;6.68;2.70;;;8.60;99.90;;;;;;5011488;28;20026;-82
2021/03/25 00:08:43;;;;;;;7.50;2.45;;;8.70;99.90;;;;;;5011502;28;20475;-79
2021/03/25 00:11:09;;;;;;;20.00;3.83;;;8.60;99.90;;;;;;5011508;28;20128;-79
2021/03/25 00:13:35;;;;;;;5.72;2.20;;;8.60;99.90;;;;;;5011318;28;20058;-79
2021/03/25 00:16:04;;;;;;;4.45;2.45;;;8.60;99.90;;;;;;5009972;28;20083;-81
2021/03/25 00:18:31;;;;;;;6.45;2.55;;;8.60;99.90;;;;;;5011277;28;20038;-77
2021/03/25 00:20:58;;;;;;;9.20;3.47;;;8.50;99.90;;;;;;5079306;28;20032;-80
2021/03/25 00:23:24;;;;;;;6.38;2.97;;;8.50;99.90;;;;;;5078877;28;20507;-77
2021/03/25 00:25:50;;;;;;;9.55;3.38;;;8.50;99.90;;;;;;5011403;28;20026;-80
2021/03/25 00:28:17;;;;;;;7.47;3.45;;;8.50;99.90;;;;;;5011177;28;20384;-79
2021/03/25 00:30:44;;;;;;;8.70;3.60;;;8.50;99.90;;;;;;5011414;28;20037;-78
2021/03/25 00:33:14;;;;;;;8.75;4.30;;;8.40;99.90;;;;;;5010997;28;20029;-77
2021/03/25 00:35:41;;;;;;;9.77;3.63;;;8.40;99.90;;;;;;5010868;28;20029;-77
2021/03/25 00:38:08;;;;;;;8.13;3.20;;;8.30;99.90;;;;;;5078873;28;20455;-77
2021/03/25 00:40:34;;;;;;;7.80;3.03;;;8.30;99.90;;;;;;5010876;28;20026;-80
2021/03/25 00:43:01;;;;;;;4.97;3.00;;;8.40;99.90;;;;;;5010875;28;20030;-77
2021/03/25 00:45:50;;;;;;;8.70;3.53;;;8.40;99.90;;;;;;5010722;28;20030;-79
2021/03/25 00:48:19;;;;;;;8.95;3.15;;;8.40;99.90;;;;;;5010503;28;20048;-80
2021/03/25 00:50:49;;;;;;;6.90;3.22;;;8.50;99.90;;;;;;5078505;28;20037;-79
2021/03/25 00:53:19;;;;;;;7.47;2.95;;;8.60;99.90;;;;;;5010701;28;20030;-83
2021/03/25 00:55:46;;;;;;;10.70;3.72;;;8.70;99.90;;;;;;5078301;28;20511;-81
2021/03/25 00:58:12;;;;;;;7.30;3.33;;;8.90;99.90;;;;;;5010772;28;20116;-80
2021/03/25 01:00:41;;;;;;;9.63;3.58;;;9.00;99.90;;;;;;5010450;28;20034;-77
2021/03/25 01:03:09;;;;;;;10.65;3.63;;;9.10;99.90;;;;;;5010733;28;20034;-78
2021/03/25 01:05:36;;;;;;;6.72;3.08;;;9.30;99.90;;;;;;5010639;28;20087;-79
2021/03/25 01:08:03;;;;;;;5.05;3.10;;;9.40;99.90;;;;;;5010544;28;20038;-78
2021/03/25 01:10:38;;;;;;;9.73;4.18;;;9.40;99.90;;;;;;5010161;28;20040;-81
2021/03/25 01:13:14;;;;;;;6.10;2.80;;;9.50;99.90;;;;;;5010482;28;20062;-83
2021/03/25 01:15:40;;;;;;;6.25;3.35;;;9.50;99.90;;;;;;5018542;28;20514;-78
2021/03/25 01:18:07;;;;;;;5.90;3.50;;;9.50;99.90;;;;;;5078175;28;20034;-78
2021/03/25 01:20:37;;;;;;;6.85;3.78;;;9.60;99.90;;;;;;5077981;28;20551;-78
2021/03/25 01:23:04;;;;;;;7.10;3.47;;;9.60;99.90;;;;;;5010285;28;20064;-81
2021/03/25 01:25:30;;;;;;;11.43;4.22;;;9.50;99.90;;;;;;5077959;28;20106;-79
2021/03/25 01:27:58;;;;;;;6.93;3.10;;;9.50;99.90;;;;;;5009925;28;20033;-79
2021/03/25 01:30:27;;;;;;;6.28;2.78;;;9.50;99.90;;;;;;5010274;28;20058;-81
2021/03/25 01:32:57;;;;;;;9.88;3.30;;;9.50;99.90;;;;;;5010296;28;20072;-79
2021/03/25 01:35:24;;;;;;;9.70;3.65;;;9.50;99.90;;;;;;5077853;28;20022;-77
2021/03/25 01:37:50;;;;;;;6.70;2.97;;;9.30;99.90;;;;;;5010202;28;20144;-77
2021/03/25 01:40:19;;;;;;;4.53;2.30;;;9.00;99.90;;;;;;5077837;28;20026;-80
2021/03/25 01:42:47;;;;;;;5.60;2.45;;;9.10;99.90;;;;;;5077752;28;20036;-80
2021/03/25 01:45:29;;;;;;;8.20;2.90;;;9.10;99.90;;;;;;5077766;28;20155;-80
2021/03/25 01:47:57;;;;;;;6.78;2.72;;;9.20;99.90;;;;;;5010050;28;20053;-82
2021/03/25 01:50:24;;;;;;;6.50;3.08;;;9.20;99.90;;;;;;5077566;28;20464;-77
2021/03/25 01:53:12;;;;;;;8.05;3.13;;;9.30;99.90;;;;;;5077453;28;20034;-77
2021/03/25 01:55:48;;;;;;;4.55;2.28;;;9.30;99.90;;;;;;5009904;28;20030;-77
2021/03/25 01:58:32;;;;;;;4.30;2.75;;;9.20;99.90;;;;;;5009786;28;20038;-83
2021/03/25 02:01:26;;;;;;;7.38;3.30;;;9.20;99.90;;;;;;5077414;28;20044;-80
2021/03/25 02:04:29;;;;;;;6.72;2.63;;;9.20;99.90;;;;;;5009727;28;20022;-79
2021/03/25 02:07:10;;;;;;;5.40;2.42;;;9.20;99.90;;;;;;5077402;28;20026;-79
2021/03/25 02:10:01;;;;;;;3.55;1.83;;;9.30;99.90;;;;;;5009462;28;20049;-81
2021/03/25 02:13:00;;;;;;;6.10;2.65;;;9.30;99.90;;;;;;5011677;28;20081;-78
2021/03/25 02:15:44;;;;;;;3.90;2.38;;;9.40;99.90;;;;;;5077206;28;20030;-77
2021/03/25 02:18:19;;;;;;;8.45;1.95;;;9.40;99.90;;;;;;5077300;28;20483;-81
2021/03/25 02:21:02;;;;;;;5.25;2.47;;;9.40;99.90;;;;;;5077090;28;20034;-78
2021/03/25 02:23:46;;;;;;;3.35;2.03;;;9.50;99.90;;;;;;5077450;28;20057;-80
2021/03/25 02:26:26;;;;;;;10.30;2.20;;;9.50;99.90;;;;;;5009482;28;20476;-80
2021/03/25 02:29:24;;;;;;;4.53;2.28;;;9.50;99.90;;;;;;5077299;28;20082;-80
2021/03/25 02:31:56;;;;;;;6.03;1.63;;;9.50;99.90;;;;;;5017209;28;20487;-78
2021/03/25 02:34:27;;;;;;;5.30;2.33;;;9.50;99.90;;;;;;5077212;28;20030;-77
2021/03/25 02:37:08;;;;;;;2.53;1.92;;;9.50;99.90;;;;;;5077071;28;20072;-78
2021/03/25 02:39:54;;;;;;;2.70;2.00;;;9.50;99.90;;;;;;5079437;28;20044;-78
2021/03/25 02:42:45;;;;;;;3.75;2.15;;;9.50;99.90;;;;;;5012850;28;20038;-79
2021/03/25 02:45:19;;;;;;;3.83;2.53;;;9.50;99.90;;;;;;5080669;28;20395;-79
2021/03/25 02:47:49;;;;;;;3.80;2.00;;;9.50;99.90;;;;;;5012719;28;20038;-78
2021/03/25 02:50:45;;;;;;;5.38;1.90;;;9.50;99.90;;;;;;5012640;28;20030;-78
2021/03/25 02:53:34;;;;;;;3.40;1.63;;;9.50;99.90;;;;;;5012577;28;20050;-79
2021/03/25 02:56:11;;;;;;;2.70;1.40;;;9.50;99.90;;;;;;5080601;28;20062;-78
2021/03/25 02:58:42;;;;;;;3.03;1.67;;;9.50;99.90;;;;;;5080546;28;20095;-78
2021/03/25 03:01:12;;;;;;;3.25;1.88;;;9.50;99.90;;;;;;5080328;28;20109;-83
2021/03/25 03:03:46;;;;;;;3.38;1.90;;;9.50;99.90;;;;;;5080254;28;20036;-77
2021/03/25 03:06:48;;;;;;;3.30;1.42;;;9.50;99.90;;;;;;5080517;28;20022;-78
2021/03/25 03:09:28;;;;;;;4.82;1.60;;;9.50;99.90;;;;;;5012230;28;20468;-78
2021/03/25 03:11:59;;;;;;;5.25;2.25;;;9.50;99.90;;;;;;5080348;28;20488;-80
2021/03/25 03:14:36;;;;;;;5.43;2.10;;;9.50;99.90;;;;;;5012188;28;20069;-82
2021/03/25 03:17:11;;;;;;;4.15;1.90;;;9.50;99.90;;;;;;5012373;28;20124;-81
2021/03/25 03:20:01;;;;;;;4.68;2.17;;;9.40;99.90;;;;;;5080083;28;20487;-78
2021/03/25 03:22:28;;;;;;;4.38;2.03;;;9.40;99.90;;;;;;5080356;28;20482;-81
2021/03/25 03:25:04;;;;;;;3.70;2.33;;;9.30;99.90;;;;;;5080313;28;20026;-79
2021/03/25 03:28:11;;;;;;;5.22;1.80;;;9.30;99.90;;;;;;5080328;28;20087;-77
2021/03/25 03:30:44;;;;;;;3.63;1.70;;;9.30;99.90;;;;;;5071935;28;20046;-77
2021/03/25 03:33:28;;;;;;;4.68;1.90;;;9.20;99.90;;;;;;5080003;28;20083;-81
2021/03/25 03:36:08;;;;;;;3.38;1.80;;;9.20;99.90;;;;;;5079855;28;20053;-79
2021/03/25 03:38:54;;;;;;;3.50;1.73;;;9.20;99.90;;;;;;5011901;28;20030;-79
2021/03/25 03:41:26;;;;;;;2.53;1.63;;;9.20;99.90;;;;;;5011818;28;20040;-81
2021/03/25 03:43:58;;;;;;;3.08;1.73;;;9.20;99.90;;;;;;5079999;28;20038;-80
2021/03/25 03:46:27;;;;;;;4.95;1.80;;;9.20;99.90;;;;;;5085026;28;20034;-77
2021/03/25 03:49:17;;;;;;;4.32;1.77;;;9.20;99.90;;;;;;5082826;28;20022;-79
2021/03/25 03:52:11;;;;;;;2.75;1.80;;;9.20;99.90;;;;;;5079708;28;20034;-81
2021/03/25 03:54:42;;;;;;;3.72;2.47;;;9.20;99.90;;;;;;5079585;28;20060;-78
2021/03/25 03:57:29;;;;;;;3.10;2.08;;;9.10;99.90;;;;;;5079417;28;20042;-79
2021/03/25 04:00:09;;;;;;;3.08;1.83;;;9.10;99.90;;;;;;5079450;28;20030;-77
2021/03/25 04:03:11;;;;;;;3.03;2.40;;;9.10;99.90;;;;;;5011536;28;20037;-81
2021/03/25 04:06:08;;;;;;;2.97;1.90;;;9.10;99.90;;;;;;5063215;28;20030;-82
2021/03/25 04:08:59;;;;;;;6.22;2.05;;;9.00;99.90;;;;;;5079331;28;20126;-83
2021/03/25 04:11:53;;;;;;;5.63;1.83;;;9.00;99.90;;;;;;5011231;28;20071;-78
2021/03/25 04:14:30;;;;;;;2.30;2.03;;;9.00;99.90;;;;;;5079335;28;20139;-83
2021/03/25 04:17:18;;;;;;;4.72;2.17;;;8.90;99.90;;;;;;5078859;28;20060;-81
2021/03/25 04:19:50;;;;;;;3.50;1.65;;;8.90;99.90;;;;;;5079032;28;20112;-81
2021/03/25 04:22:26;;;;;;;4.10;2.10;;;8.80;99.90;;;;;;5011255;28;20390;-79
2021/03/25 04:25:05;;;;;;;4.82;2.13;;;8.80;99.90;;;;;;5011161;28;20057;-82
2021/03/25 04:27:44;;;;;;;2.80;1.67;;;8.80;99.90;;;;;;5079029;28;20057;-78
2021/03/25 04:30:34;;;;;;;8.55;2.15;;;8.80;99.90;;;;;;5010917;28;20030;-81
2021/03/25 04:33:00;;;;;;;4.03;1.67;;;8.80;99.90;;;;;;5011162;28;20155;-79
2021/03/25 04:35:26;;;;;;;3.50;1.98;;;8.80;99.90;;;;;;5010930;28;20026;-77
2021/03/25 04:37:54;;;;;;;2.63;1.60;;;8.70;99.90;;;;;;5010924;28;20507;-84
2021/03/25 04:40:29;;;;;;;3.58;1.65;;;8.70;99.90;;;;;;5010740;28;20030;-79
2021/03/25 04:42:56;;;;;;;2.53;1.77;;;8.70;99.90;;;;;;5011001;28;20049;-81
2021/03/25 04:45:36;;;;;;;3.58;1.70;;;8.70;99.90;;;;;;5010814;28;20026;-77
2021/03/25 04:48:05;;;;;;;4.82;2.25;;;8.70;99.90;;;;;;5010882;28;20022;-77
2021/03/25 04:50:36;;;;;;;3.65;2.03;;;8.60;99.90;;;;;;5010675;28;20025;-81
2021/03/25 04:53:07;;;;;;;5.68;2.08;;;8.60;99.90;;;;;;5010762;28;20400;-81
2021/03/25 04:55:37;;;;;;;3.38;2.03;;;8.60;99.90;;;;;;5010670;28;20022;-79
2021/03/25 04:58:10;;;;;;;3.90;1.75;;;8.60;99.90;;;;;;5010862;28;20026;-77
2021/03/25 05:00:39;;;;;;;2.70;1.50;;;8.60;99.90;;;;;;5010769;28;20152;-78
2021/03/25 05:03:08;;;;;;;2.42;1.70;;;8.60;99.90;;;;;;5017925;28;20028;-77
2021/03/25 05:05:35;;;;;;;3.75;1.73;;;8.60;99.90;;;;;;5010553;28;20029;-79
2021/03/25 05:08:07;;;;;;;3.50;2.03;;;8.60;99.90;;;;;;5010545;28;20195;-81
2021/03/25 05:10:41;;;;;;;4.47;2.30;;;8.50;99.90;;;;;;5010451;28;20030;-78
2021/03/25 05:13:18;;;;;;;;;;;8.60;99.90;;;;;;5010686;28;20073;-77
2021/03/25 05:15:44;;;;;;;3.50;1.88;;;8.60;99.90;;;;;;5010423;28;20347;-78
2021/03/25 05:18:21;;;;;;;4.57;2.30;;;8.60;99.90;;;;;;5010319;28;20065;-77
2021/03/25 05:21:15;;;;;;;2.78;1.80;;;8.60;99.90;;;;;;5010309;28;20028;-77
2021/03/25 05:23:48;;;;;;;3.17;1.75;;;8.60;99.90;;;;;;5012027;28;20046;-81
2021/03/25 05:26:28;;;;;;;2.35;1.95;;;8.60;99.90;;;;;;5010160;28;20030;-78
2021/03/25 05:28:59;;;;;;;4.90;2.20;;;8.70;99.90;;;;;;5010195;28;20396;-80
2021/03/25 05:31:28;;;;;;;6.68;2.08;;;8.70;99.90;;;;;;5010284;28;20070;-80
2021/03/25 05:33:57;;;;;;;2.30;1.77;;;8.70;99.90;;;;;;5010233;28;20025;-80
2021/03/25 05:36:23;;;;;;;3.83;2.08;;;8.60;99.90;;;;;;5010013;28;20029;-78
2021/03/25 05:38:49;;;;;;;4.55;1.85;;;8.50;99.90;;;;;;5060643;28;20053;-77
2021/03/25 05:41:26;;;;;;;5.93;2.22;;;8.60;99.90;;;;;;5009978;28;20026;-77
2021/03/25 05:44:28;;;;;;;3.58;1.98;;;8.70;99.90;;;;;;5010157;28;20037;-76
2021/03/25 05:47:16;;;;;;;4.95;2.30;;;8.70;99.90;;;;;;5009922;28;20549;-77
2021/03/25 05:50:12;;;;;;;4.05;2.55;;;8.80;99.90;;;;;;5009997;28;20124;-77
2021/03/25 05:53:03;;;;;;;4.20;1.95;;;8.90;99.90;;;;;;5010089;28;20049;-77
2021/03/25 05:55:47;;;;;;;4.55;1.95;;;8.90;99.90;;;;;;5009795;28;20026;-80
2021/03/25 05:58:16;;;;;;;2.58;1.80;;;8.90;99.90;;;;;;5010012;28;20034;-77
2021/03/25 06:01:00;;;;;;;3.22;1.88;;;9.00;99.90;;;;;;5010007;28;20030;-77
2021/03/25 06:03:27;;;;;;;3.85;2.08;;;9.00;99.90;;;;;;5009612;28;20030;-83
2021/03/25 06:05:59;;;;;;;4.28;2.38;;;9.00;99.90;;;;;;5009955;28;20041;-79
2021/03/25 06:08:37;;;;;;;3.10;1.85;;;9.10;99.90;;;;;;5077243;28;20488;-78
2021/03/25 06:11:33;;;;;;;4.07;2.20;;;9.20;99.90;;;;;;5009598;28;20114;-78
2021/03/25 06:14:34;;;;;;;4.18;1.73;;;9.10;99.90;;;;;;5011046;28;20072;-80
2021/03/25 06:17:37;;;;;;;3.45;2.13;;;9.20;99.90;;;;;;5013656;28;20056;-77
2021/03/25 06:20:12;;;;;;;3.13;2.00;;;9.30;99.90;;;;;;5018600;28;20483;-81
2021/03/25 06:22:53;;;;;;;4.63;2.10;;;9.40;99.90;;;;;;5013221;28;20064;-79
2021/03/25 06:25:39;;;;;;;2.95;1.60;;;9.40;99.90;;;;;;5081206;28;20377;-80
2021/03/25 06:28:35;;;;;;;3.78;1.92;;;9.50;99.60;;;;;;5013099;28;20029;-81
2021/03/25 06:31:19;;;;;;;3.30;1.85;;;9.30;97.80;;;;;;5012885;28;20032;-77
2021/03/25 06:34:00;;;;;;;3.75;1.90;;;9.30;98.60;;;;;;5012835;28;20030;-78
2021/03/25 06:36:53;;;;;;;3.03;1.92;;;9.40;98.20;;;;;;5012669;28;20034;-78
2021/03/25 06:39:31;;;;;;;3.58;2.00;;;9.50;98.70;;;;;;5012739;28;20057;-78
2021/03/25 06:41:57;;;;;;;2.80;1.90;;;9.50;97.80;;;;;;5012749;28;20075;-81
2021/03/25 06:44:37;;;;;;;4.40;2.15;;;9.50;98.10;;;;;;5012732;28;20026;-80
2021/03/25 06:47:20;;;;;;;4.30;1.67;;;9.50;97.70;;;;;;5012782;28;20036;-80
2021/03/25 06:49:51;;;;;;;3.50;2.17;;;9.50;97.90;;;;;;5080885;28;20036;-81
2021/03/25 06:52:26;;;;;;;6.20;1.80;;;9.60;98.10;;;;;;5012580;28;20038;-78
2021/03/25 06:55:05;;;;;;;4.28;2.20;;;9.60;97.20;;;;;;5012560;28;20090;-77
2021/03/25 06:57:43;;;;;;;3.83;1.65;;;9.60;97.10;;;;;;5080623;28;20106;-80
2021/03/25 07:00:14;;;;;;;5.43;2.00;;;9.70;97.50;;;;;;5080663;28;20063;-77
2021/03/25 07:02:43;;;;;;;5.03;2.22;;;9.80;97.40;;;;;;5012512;28;20090;-77
2021/03/25 07:05:12;;;;;;;3.65;2.05;;;9.90;97.50;;;;;;5012428;28;20033;-81
2021/03/25 07:07:41;;;;;;;4.25;2.00;;;10.00;97.80;;;;;;5012335;28;20137;-83
2021/03/25 07:10:09;;;;;;;1.92;1.58;;;10.10;96.70;;;;;;5012140;28;20026;-78
2021/03/25 07:12:38;;;;;;;4.75;2.25;;;10.00;96.40;;;;;;5011973;28;20058;-77
2021/03/25 07:15:06;;;;;;;3.58;2.22;;;9.90;96.00;;;;;;5012331;28;20561;-79
2021/03/25 07:17:42;;;;;;;4.75;1.60;;;9.90;96.30;;;;;;5011986;28;20080;-80
2021/03/25 07:20:30;;;;;;;4.40;2.38;;;10.00;96.60;;;;;;5012259;28;20382;-77
2021/03/25 07:23:09;;;;;;;3.10;2.17;;;9.80;95.70;;;;;;5080075;28;20101;-77
2021/03/25 07:25:43;;;;;;;3.42;1.83;;;9.90;96.30;;;;;;5011718;28;20480;-78
2021/03/25 07:28:19;;;;;;;5.80;2.30;;;9.80;96.00;;;;;;5012397;28;20112;-79
2021/03/25 07:30:56;;;;;;;4.30;1.60;;;9.80;95.30;;;;;;5080068;28;20034;-77
2021/03/25 07:33:26;;;;;;;6.82;2.60;;;9.80;95.80;;;;;;5012682;28;20029;-78
2021/03/25 07:36:09;;;;;;;18.10;4.65;;;9.80;96.40;;;;;;5019268;28;20094;-77
2021/03/25 07:38:38;;;;;;;2.90;1.65;;;9.90;96.10;;;;;;5080057;28;20430;-83
2021/03/25 07:41:29;;;;;;;3.38;1.70;;;9.90;96.00;;;;;;5011884;28;20095;-77
2021/03/25 07:44:03;;;;;;;3.17;2.00;;;9.90;95.30;;;;;;5011843;28;20033;-77
2021/03/25 07:46:33;;;;;;;3.95;1.50;;;9.90;95.40;;;;;;5011863;28;20499;-78
2021/03/25 07:49:09;;;;;;;4.50;1.88;;;9.90;95.80;;;;;;5011717;28;20077;-77
2021/03/25 07:51:53;;;;;;;3.13;1.85;;;10.00;95.60;;;;;;5011725;28;20025;-77
2021/03/25 07:54:25;;;;;;;5.25;2.10;;;10.10;95.60;;;;;;5011482;28;20062;-78
2021/03/25 07:57:09;;;;;;;43.05;5.75;;;10.20;95.70;;;;;;5011404;28;20562;-82
2021/03/25 07:59:37;;;;;;;4.25;1.83;;;10.30;95.10;;;;;;5062852;28;20484;-77
2021/03/25 08:02:20;;;;;;;22.30;2.83;;;10.40;95.30;;;;;;5011703;28;20580;-80
2021/03/25 08:04:46;;;;;;;3.70;1.67;;;10.50;95.60;;;;;;5011763;28;20387;-79
2021/03/25 08:07:13;;;;;;;3.42;1.58;;;10.50;94.90;;;;;;5011470;28;20030;-77
2021/03/25 08:09:55;;;;;;;3.67;1.35;;;10.50;94.80;;;;;;5011519;28;20030;-80
2021/03/25 08:12:24;;;;;;;4.95;1.27;;;10.60;94.30;;;;;;5011086;28;20560;-80
2021/03/25 08:15:01;;;;;;;3.22;1.60;;;10.70;94.60;;;;;;5011307;28;20502;-77
2021/03/25 08:17:43;;;;;;;3.85;1.88;;;10.70;94.90;;;;;;5078927;28;20057;-82
2021/03/25 08:20:21;;;;;;;5.00;1.45;;;10.70;94.40;;;;;;5011224;28;20026;-78
2021/03/25 08:23:16;;;;;;;3.20;2.30;;;10.80;93.60;;;;;;5011268;28;20030;-78
2021/03/25 08:25:51;;;;;;;4.07;1.95;;;10.70;93.50;;;;;;5016185;28;20042;-77
2021/03/25 08:28:25;;;;;;;2.35;1.25;;;10.70;94.10;;;;;;5011242;28;20491;-77
2021/03/25 08:31:00;;;;;;;2.55;1.58;;;10.80;94.10;;;;;;5011195;28;20030;-80
2021/03/25 08:33:38;;;;;;;2.92;1.60;;;10.70;93.00;;;;;;5078738;28;20038;-79
2021/03/25 08:36:21;;;;;;;3.08;1.15;;;10.70;92.90;;;;;;5009876;28;20033;-80
2021/03/25 08:38:53;;;;;;;4.35;1.50;;;10.80;93.00;;;;;;5011076;28;20069;-78
2021/03/25 08:41:34;;;;;;;1.90;1.40;;;10.80;93.10;;;;;;5010811;28;20369;-79
2021/03/25 08:44:40;;;;;;;5.03;1.92;;;10.90;92.30;;;;;;5011063;28;20042;-80
2021/03/25 08:47:40;;;;;;;2.53;1.50;;;10.90;93.80;;;;;;5010877;28;20075;-78
2021/03/25 08:50:43;;;;;;;4.45;1.60;;;11.10;93.20;;;;;;5022281;28;20062;-79
2021/03/25 08:53:18;;;;;;;1.98;1.17;;;11.00;91.70;;;;;;5015022;28;20026;-80
2021/03/25 08:55:45;;;;;;;2.83;1.67;;;11.20;92.80;;;;;;5010905;28;20400;-79
2021/03/25 08:58:18;;;;;;;3.17;1.67;;;11.50;92.30;;;;;;5010712;28;20038;-78
2021/03/25 09:00:48;;;;;;;2.00;1.60;;;11.70;92.30;;;;;;5010725;28;20034;-77
2021/03/25 09:03:24;;;;;;;3.38;1.80;;;11.90;91.20;;;;;;5010608;28;20398;-77
2021/03/25 09:06:13;;;;;;;2.70;1.40;;;12.10;91.30;;;;;;5010598;28;20204;-77
2021/03/25 09:08:41;;;;;;;1.73;1.30;;;12.30;91.30;;;;;;5078205;28;20034;-81
2021/03/25 09:11:12;;;;;;;2.60;1.73;;;12.30;91.00;;;;;;5010749;28;20037;-78
2021/03/25 09:13:59;;;;;;;6.90;2.45;;;12.30;90.20;;;;;;5010402;28;20053;-78
2021/03/25 09:16:31;;;;;;;5.57;2.55;;;12.20;88.70;;;;;;5010316;28;20045;-82
2021/03/25 09:18:59;;;;;;;4.18;1.80;;;11.80;90.10;;;;;;5010485;28;20026;-77
2021/03/25 09:21:28;;;;;;;2.40;1.63;;;11.50;89.10;;;;;;5010411;28;20022;-78
2021/03/25 09:24:00;;;;;;;3.90;2.03;;;11.60;89.90;;;;;;5010406;28;20026;-78
2021/03/25 09:26:26;;;;;;;7.53;2.08;;;11.60;90.40;;;;;;5010194;28;20030;-78
2021/03/25 09:29:01;;;;;;;3.65;1.50;;;11.60;89.10;;;;;;5010218;28;20071;-80
2021/03/25 09:31:39;;;;;;;3.85;1.33;;;11.60;89.30;;;;;;5010195;28;20037;-78
2021/03/25 09:34:11;;;;;;;3.47;1.48;;;11.70;88.40;;;;;;5010252;28;20429;-80
2021/03/25 09:36:39;;;;;;;3.53;1.70;;;11.70;87.90;;;;;;5010007;28;20038;-83
2021/03/25 09:39:22;;;;;;;2.08;1.25;;;11.70;88.30;;;;;;5010031;28;20018;-83
2021/03/25 09:41:49;;;;;;;4.85;1.52;;;11.80;86.70;;;;;;5010281;28;20038;-80
2021/03/25 09:44:28;;;;;;;2.88;1.80;;;11.90;88.20;;;;;;5009894;28;20097;-81
2021/03/25 09:46:54;;;;;;;1.95;1.40;;;12.10;89.20;;;;;;5010098;28;20022;-80
2021/03/25 09:49:20;;;;;;;2.22;1.58;;;12.30;87.00;;;;;;5009781;28;20116;-79
2021/03/25 09:52:06;;;;;;;2.42;1.63;;;12.20;84.20;;;;;;5010081;28;20536;-78
2021/03/25 09:54:41;;;;;;;4.30;1.63;;;12.10;84.80;;;;;;5094103;28;20038;-79
2021/03/25 09:57:25;;;;;;;2.58;1.58;;;12.20;84.00;;;;;;5009807;28;20082;-83
2021/03/25 09:59:59;;;;;;;78.65;10.25;;;12.20;83.30;;;;;;5009841;28;20061;-79
2021/03/25 10:02:40;;;;;;;1.95;1.60;;;12.50;84.80;;;;;;5009856;28;20069;-82
2021/03/25 10:05:21;;;;;;;2.97;1.85;;;12.30;82.30;;;;;;5009803;28;20030;-80
2021/03/25 10:07:53;;;;;;;2.47;1.38;;;12.40;83.30;;;;;;5023882;28;20359;-78
2021/03/25 10:10:34;;;;;;;229.25;32.65;;;12.40;83.10;;;;;;5009484;28;20072;-80
2021/03/25 10:13:12;;;;;;;82.72;9.82;;;12.50;82.50;;;;;;5009620;28;20042;-77
2021/03/25 10:16:01;;;;;;;6.63;2.42;;;12.70;83.90;;;;;;5009551;28;20109;-81
2021/03/25 10:18:27;;;;;;;6.80;3.20;;;13.00;82.10;;;;;;5009470;28;20038;-79
2021/03/25 10:21:08;;;;;;;3.47;2.07;;;12.90;79.90;;;;;;5009613;28;20037;-77
2021/03/25 10:23:42;;;;;;;5.35;1.73;;;13.30;80.50;;;;;;5077182;28;20284;-78
2021/03/25 10:26:11;;;;;;;2.63;1.45;;;13.20;79.30;;;;;;5009583;28;20026;-80
2021/03/25 10:28:49;;;;;;;3.47;1.70;;;13.70;78.20;;;;;;5009644;28;20026;-79
2021/03/25 10:31:21;;;;;;;2.20;1.75;;;13.50;76.00;;;;;;5076971;28;20122;-81
2021/03/25 10:34:00;;;;;;;2.60;1.50;;;13.50;77.30;;;;;;5009403;28;20030;-77
2021/03/25 10:36:38;;;;;;;11.90;1.92;;;13.80;77.40;;;;;;5076826;28;20090;-78
2021/03/25 10:39:06;;;;;;;3.97;1.30;;;13.60;76.70;;;;;;5009275;28;20075;-80
2021/03/25 10:41:37;;;;;;;3.35;1.75;;;13.50;75.40;;;;;;5009417;28;20034;-79
2021/03/25 10:44:33;;;;;;;6.00;1.75;;;13.70;77.30;;;;;;5009400;28;20034;-79
2021/03/25 10:47:06;;;;;;;3.20;1.45;;;13.80;76.30;;;;;;5009375;28;20086;-78
2021/03/25 10:49:43;;;;;;;4.72;1.75;;;13.80;75.50;;;;;;5009156;28;20033;-77
2021/03/25 10:52:37;;;;;;;3.97;1.80;;;13.90;75.20;;;;;;5009052;28;20479;-78
2021/03/25 10:55:29;;;;;;;6.18;2.67;;;13.70;76.30;;;;;;5009845;28;20122;-78
2021/03/25 10:58:00;;;;;;;2.45;1.80;;;14.00;77.10;;;;;;5009032;28;20129;-79
2021/03/25 11:00:36;;;;;;;3.28;1.52;;;14.40;76.20;;;;;;5011266;28;20115;-79
2021/03/25 11:03:22;;;;;;;2.38;1.58;;;15.00;75.10;;;;;;5012479;28;20113;-80
2021/03/25 11:05:56;;;;;;;3.08;1.50;;;15.50;73.30;;;;;;5012514;28;20034;-77
2021/03/25 11:08:36;;;;;;;2.83;1.70;;;15.60;71.30;;;;;;5080402;28;20098;-83
2021/03/25 11:11:29;;;;;;;4.43;2.67;;;16.00;72.70;;;;;;5012348;28;20030;-79
2021/03/25 11:14:01;;;;;;;4.47;2.50;;;16.40;72.80;;;;;;5111198;27;20122;-77
2021/03/25 11:16:27;;;;;;;2.03;1.33;;;16.60;70.90;;;;;;5012169;28;20038;-81
2021/03/25 11:19:06;;;;;;;2.25;1.67;;;16.60;69.70;;;;;;5012152;28;20040;-80
2021/03/25 11:21:39;;;;;;;2.88;1.92;;;16.50;69.10;;;;;;5012337;28;20054;-79
2021/03/25 11:24:37;;;;;;;2.13;1.27;;;16.70;68.30;;;;;;5018448;28;20030;-80
2021/03/25 11:27:11;;;;;;;4.85;1.65;;;15.50;67.90;;;;;;5023334;28;20499;-82
2021/03/25 11:29:39;;;;;;;5.20;1.77;;;15.80;70.20;;;;;;5012053;28;20495;-82
2021/03/25 11:32:14;;;;;;;2.13;1.27;;;16.20;69.50;;;;;;5012132;28;20049;-80
2021/03/25 11:34:42;;;;;;;3.05;1.88;;;15.70;67.70;;;;;;5012191;28;20053;-78
2021/03/25 11:37:31;;;;;;;5.55;1.15;;;15.20;67.80;;;;;;5012142;28;20033;-77
2021/03/25 11:40:09;;;;;;;2.83;1.58;;;15.20;69.70;;;;;;5011898;28;20022;-77
2021/03/25 11:42:36;;;;;;;2.28;1.48;;;15.00;67.30;;;;;;5011967;28;20079;-80
2021/03/25 11:45:04;;;;;;;2.22;1.20;;;14.50;68.10;;;;;;5079948;28;20038;-80
2021/03/25 11:47:42;;;;;;;3.42;2.15;;;14.80;71.50;;;;;;5011702;28;20491;-78
2021/03/25 11:50:17;;;;;;;2.20;1.35;;;15.10;67.30;;;;;;5011823;28;20086;-77
2021/03/25 11:52:46;;;;;;;2.55;1.50;;;15.20;69.10;;;;;;5011851;28;20026;-81
2021/03/25 11:55:32;;;;;;;3.90;1.50;;;15.60;67.80;;;;;;5011737;28;20067;-83
2021/03/25 11:58:10;;;;;;;3.58;1.70;;;15.60;67.80;;;;;;5011365;28;20038;-80
2021/03/25 12:01:10;;;;;;;3.55;1.55;;;15.20;67.40;;;;;;5011543;28;20119;-80
2021/03/25 12:04:00;;;;;;;2.53;1.65;;;15.40;68.70;;;;;;5011539;28;20026;-79
2021/03/25 12:06:28;;;;;;;3.33;1.50;;;15.90;66.80;;;;;;5011571;28;20082;-77
2021/03/25 12:09:12;;;;;;;2.35;1.25;;;15.40;64.10;;;;;;5011526;28;20029;-82
2021/03/25 12:11:41;;;;;;;3.92;1.30;;;15.30;66.70;;;;;;5011201;28;20033;-79
2021/03/25 12:14:08;;;;;;;2.75;1.50;;;15.40;64.80;;;;;;5011423;28;20090;-79
2021/03/25 12:16:35;;;;;;;2.25;1.30;;;15.30;64.70;;;;;;5011228;28;20033;-79
2021/03/25 12:19:01;;;;;;;2.22;1.35;;;15.00;65.30;;;;;;5011267;28;20029;-77
2021/03/25 12:21:30;;;;;;;3.15;1.80;;;14.90;65.30;;;;;;5011401;28;20076;-81
2021/03/25 12:23:58;;;;;;;2.47;1.55;;;14.60;63.70;;;;;;5011273;28;20030;-79
2021/03/25 12:26:25;;;;;;;3.33;1.63;;;14.10;64.80;;;;;;5011249;28;20030;-82
2021/03/25 12:28:51;;;;;;;2.78;1.40;;;13.90;64.30;;;;;;5011285;28;20025;-79
2021/03/25 12:31:20;;;;;;;2.30;1.55;;;14.00;67.20;;;;;;5011047;28;20030;-80
2021/03/25 12:33:46;;;;;;;2.70;1.60;;;14.10;66.30;;;;;;5011255;28;20025;-79
2021/03/25 12:36:13;;;;;;;3.60;1.95;;;14.30;65.90;;;;;;5010907;28;20113;-80
2021/03/25 12:38:40;;;;;;;3.10;1.42;;;14.50;65.60;;;;;;5012399;28;20030;-78
2021/03/25 12:41:06;;;;;;;3.15;1.60;;;14.90;66.20;;;;;;5013219;28;20391;-81
2021/03/25 12:43:34;;;;;;;5.85;1.52;;;15.20;64.70;;;;;;5078922;28;20038;-77
2021/03/25 12:46:08;;;;;;;1.50;1.17;;;15.10;65.30;;;;;;5010842;28;20475;-80
2021/03/25 12:48:35;;;;;;;2.47;1.48;;;15.20;65.30;;;;;;5010880;28;20030;-81
2021/03/25 12:51:04;;;;;;;1.58;1.40;;;15.60;63.40;;;;;;5078811;28;20037;-78
2021/03/25 12:53:31;;;;;;;2.20;1.73;;;15.30;64.20;;;;;;5010630;28;20387;-79
2021/03/25 12:55:59;;;;;;;3.05;1.70;;;15.10;65.40;;;;;;5010743;28;20029;-81
2021/03/25 12:58:34;;;;;;;2.05;1.45;;;15.40;67.30;;;;;;5010623;28;20476;-79
2021/03/25 13:01:10;;;;;;;2.60;1.50;;;15.10;64.30;;;;;;5010657;28;20128;-81
2021/03/25 13:03:38;;;;;;;3.72;1.50;;;15.00;63.80;;;;;;5010643;28;20121;-80
2021/03/25 13:06:06;;;;;;;2.72;1.45;;;15.20;67.20;;;;;;5010554;28;20074;-79
2021/03/25 13:08:32;;;;;;;4.00;1.30;;;15.30;64.00;;;;;;5010367;28;20024;-81
2021/03/25 13:10:58;;;;;;;3.58;1.60;;;15.70;64.50;;;;;;5078151;28;20037;-77
2021/03/25 13:13:24;;;;;;;3.00;1.60;;;15.60;64.20;;;;;;5010362;28;20054;-83
2021/03/25 13:15:50;;;;;;;2.45;1.48;;;15.30;62.80;;;;;;5010323;28;20118;-77
2021/03/25 13:18:16;;;;;;;4.60;1.77;;;15.40;63.50;;;;;;5010410;28;20117;-78
2021/03/25 13:20:44;;;;;;;4.82;1.17;;;15.50;64.20;;;;;;5010284;28;20506;-77
2021/03/25 13:23:10;;;;;;;3.70;1.77;;;15.30;65.30;;;;;;5009688;28;20037;-79
2021/03/25 13:25:39;;;;;;;3.47;1.50;;;15.20;63.30;;;;;;5010327;28;20078;-78
2021/03/25 13:28:07;;;;;;;3.33;1.20;;;15.20;63.60;;;;;;5078179;28;20034;-80
2021/03/25 13:30:34;;;;;;;2.88;1.33;;;15.20;64.00;;;;;;5010521;28;20361;-77
2021/03/25 13:33:00;;;;;;;2.35;1.40;;;15.30;63.60;;;;;;5010060;28;20022;-77
2021/03/25 13:35:28;;;;;;;4.55;1.60;;;15.40;61.80;;;;;;5009931;28;20030;-77
2021/03/25 13:37:55;;;;;;;2.92;1.48;;;15.30;60.80;;;;;;5010063;28;20373;-77